»·PEaware :: N8EY KSNA-KPOC

N8EY :: KSNA-KPOC

FLIGHT INFORMATION

Flight Status: Arrived
Operator: Privately registered:
United States
More flights under this callsign
Pilot: Russel M. (42411)
Aircraft: BEECH AIRCRAFT BARON
(BE58)
More flights by this aircraft type
Origin: KSNA John Wayne-Orange Co
United States
Destination: KPOC Brackett
United States
More flights between these airports :: More routes between these airports
Route: SLI V8 POXKU V363 POM
File this flight plan on PilotEdge
Remarks:
Altitude:
(Current/Filed)
5,000ft
Speed:
(Current/Filed)
170kts
Departed: 28-Sep-23 05:20 PM
Arrived: 28-Sep-23 05:53 PM
Distance/Time
Traveled:
25nm/0:33
Distance/Time
To Go:
Arrived

Flight Plot

Page will automatically refresh every two minutes.


Map Options




Map Legend


Flown Route
Filed Route
Departure Airport
Arrival Airport
Navaid (VOR, NDB)
Fix

Horizontal Profiles

Position Reports

Time Latitude Longitude Heading Altitude Ground
Speed
28-Sep-23 17:03 33.675821 -117.871071 220 59ft 0kts
28-Sep-23 17:04 33.675821 -117.871071 220 59ft 0kts
28-Sep-23 17:05 33.675821 -117.871071 220 59ft 0kts
28-Sep-23 17:06 33.675821 -117.871071 220 59ft 0kts
28-Sep-23 17:07 33.675821 -117.871071 220 59ft 0kts
28-Sep-23 17:08 33.675821 -117.871071 220 59ft 0kts
28-Sep-23 17:09 33.675821 -117.871071 220 59ft 0kts
28-Sep-23 17:10 33.675821 -117.871071 220 59ft 0kts
28-Sep-23 17:11 33.675821 -117.871071 220 59ft 0kts
28-Sep-23 17:12 33.675821 -117.871071 220 59ft 0kts
28-Sep-23 17:13 33.675821 -117.871071 220 59ft 0kts
28-Sep-23 17:14 33.675821 -117.871071 220 59ft 0kts
28-Sep-23 17:15 33.675682 -117.870473 41 59ft 10kts
28-Sep-23 17:16 33.680100 -117.867730 26 59ft 15kts
28-Sep-23 17:17 33.681283 -117.866504 109 59ft 0kts
28-Sep-23 17:18 33.680596 -117.865726 195 59ft 15kts
28-Sep-23 17:19 33.661165 -117.878464 212 611ft 125kts
28-Sep-23 17:20 33.637103 -117.908424 231 2202ft 126kts
28-Sep-23 17:21 33.615115 -117.944643 244 1914ft 117kts
28-Sep-23 17:22 33.632678 -117.953942 12 1888ft 90kts
28-Sep-23 17:23 33.662774 -117.944895 11 2329ft 129kts
28-Sep-23 17:24 33.701684 -117.935246 11 2969ft 151kts
28-Sep-23 17:25 33.743522 -117.924815 11 3573ft 155kts
28-Sep-23 17:26 33.785616 -117.914293 11 4170ft 154kts
28-Sep-23 17:27 33.822415 -117.892678 53 4763ft 151kts
28-Sep-23 17:28 33.838394 -117.844959 71 5084ft 169kts
28-Sep-23 17:29 33.852053 -117.787065 74 5077ft 186kts
28-Sep-23 17:30 33.865874 -117.726209 74 5075ft 189kts
28-Sep-23 17:31 33.905928 -117.708109 332 5066ft 190kts
28-Sep-23 17:32 33.935517 -117.758287 284 5077ft 190kts
28-Sep-23 17:33 33.966903 -117.795453 356 5678ft 159kts
28-Sep-23 17:34 34.011425 -117.788935 13 6079ft 176kts
28-Sep-23 17:35 34.062292 -117.789440 357 6076ft 188kts
28-Sep-23 17:36 34.083732 -117.754645 127 6093ft 187kts
28-Sep-23 17:37 34.078200 -117.692272 92 6075ft 190kts
28-Sep-23 17:38 34.075684 -117.628505 92 6068ft 191kts
28-Sep-23 17:39 34.073232 -117.567971 92 6061ft 169kts
28-Sep-23 17:40 34.072902 -117.515899 93 5999ft 141kts
28-Sep-23 17:41 34.071461 -117.467308 91 5341ft 147kts
28-Sep-23 17:42 34.045808 -117.462768 261 4592ft 148kts
28-Sep-23 17:43 34.064488 -117.505463 307 4046ft 138kts
28-Sep-23 17:44 34.079570 -117.545132 273 3839ft 133kts
28-Sep-23 17:45 34.081207 -117.585454 275 3564ft 105kts
28-Sep-23 17:46 34.084381 -117.618800 266 3473ft 105kts
28-Sep-23 17:47 34.084304 -117.652922 275 3249ft 100kts
28-Sep-23 17:48 34.086224 -117.686528 274 2886ft 104kts
28-Sep-23 17:49 34.087827 -117.721127 275 2106ft 103kts
28-Sep-23 17:50 34.089853 -117.754536 274 1463ft 102kts
28-Sep-23 17:51 34.091346 -117.783511 273 990ft 52kts
28-Sep-23 17:52 34.092032 -117.786772 3 980ft 5kts
28-Sep-23 17:53 34.093206 -117.785885 106 981ft 0kts
28-Sep-23 17:54 34.093206 -117.785885 106 981ft 0kts
28-Sep-23 17:55 34.093206 -117.785885 106 981ft 0kts
28-Sep-23 17:56 34.093206 -117.785885 106 981ft 0kts
28-Sep-23 17:57 34.093206 -117.785885 106 981ft 0kts
28-Sep-23 17:58 34.093206 -117.785885 106 981ft 0kts
28-Sep-23 18:00 34.093206 -117.785885 106 981ft 0kts
28-Sep-23 18:01 34.093206 -117.785885 106 981ft 0kts
28-Sep-23 18:02 34.093206 -117.785885 106 981ft 0kts
28-Sep-23 18:03 34.093206 -117.785885 106 981ft 0kts
28-Sep-23 18:04 34.093206 -117.785885 106 981ft 0kts
28-Sep-23 18:05 34.093206 -117.785885 106 981ft 0kts
28-Sep-23 18:06 34.093206 -117.785885 106 981ft 0kts
28-Sep-23 18:07 34.093206 -117.785885 106 981ft 0kts

Navigation Log

Ident Type
Flight plan parsing failed, navigation log unavailable